Nesmith, South Carolina
Current Conditions -  °F | °C
As of 2:55 PM on Thursday 30 Oct 2014 (Local Time) from KCKI Reporting Station
Clear Clear  
Wind Chill: 72°   Ceiling: Unl
Heat Index: 72°   Visibility: 10mi
Dew Point: 50°   Wind: 6mph
Humidity: 46%   Direction: 60°ENE
Pressure: 29.95"   Gusts: NA
Location:  33.66°N, 79.51°W
Report Text: KCKI 301855Z AUTO 06005KT 10SM CLR 22/10 A2995 RMK AO2
Loading
Personal Weather Stations






























Interactive Weather Map
Tropical Storm Tracking
New forecast layout! Learn more

10-Day Weather Forecast

Advertisements
Track Severe Weather on mobile